Portada
METAR-TAF:

METAR-TAF

Aeropuertos :

Aeropuerto de Salamanca

Salamanca, España

latitud: 40-57N, longitud: 005-30W, altitud: 793 m

Observación

El informe se hizo hace 24 minutos, a las 17:00 UTC
Viento 3 kt del sureste, variando entre este y sur
Temperatura 8°C
Humedad 57%
Presión 1022 hPa
Visibilidad 10 km o más
sin nubes por debajo de 1500 m y sin presencia de cumulonimbus.

METAR: LESA 011700Z 13003KT 100V170 CAVOK 08/M00 Q1022

Hora: 18:24 (17:24 UTC)

Pronóstico

El informe se hizo hace 3 horas y 24 minutos, a las 14:00 UTC
Pronóstico válido del 01 a las 15 UTC al 02 a las 15 UTC
Viento 7 kt del noreste
Visibilidad 10 km o más
sin nubes por debajo de 1500 m y sin presencia de cumulonimbus.
Probabilidad 40% :
Temporalmente
del 02 a las 05 UTC al 02 a las 11 UTC
Cielo cubierto a una altura de 900 ft

TAF: LESA 011400Z 0115/0215 05007KT CAVOK TX12/0115Z TNM01/0207Z PROB40 TEMPO 0205/0211 OVC009

Observaciones y pronósticos meteorológicos de más de 4000 aeropuertos (mensajes METAR y TAF).

Los puntos amarillos y rojos representan las estaciones disponibles.

Ponga el ratón en el punto deseado para ver el nombre de la estación.

Haga clic para ver las observaciones y los pronósticos meteorológicos.

Para cambiar el mapa : haga clic en los botones verdes con una cruz de color negro para hacer un zoom, en el botón verde con un guión para alejar o en las flechas verdes para mapas adyacentes.


METAR-TAF: